Коронавирус в мире

Коронавирус распространение в мире на 14.03.2020

 

Эпидемиологическая обстановка и распространение COVID-19 в мире

по состоянию на 08.00 (МСК) от 14.03.2020 г.

 

  • Согласно данным ежедневного отчёта Государственной Комиссии здравоохранения Китая по состоянию на 24.00 по Пекину 13.03.2020 г. (19.00 по мск) в целом в КНР зарегистрировано случаев заболевания – 81021. За сутки с 00.00 13.03.2020 по 00.00 (время Пекина) 14.03.2020 г. прирост составил 18 случаев (0,02%).
  • Случаев с летальным исходом – 3194 (прирост 14; летальность 3,9%; вне провинции Хубэй – 0,90%). В тяжёлом состоянии находятся 4021 человек (5,0%). Выписано 65649 человек (прирост 1433; 2%). Отслежено контактных лиц — 678935 (847 за последние сутки, прирост 0,1%), 10879 находятся под наблюдением.
  • Всего в мире по состоянию на 08.00 по мск 03.14.2020 г. из доступных источников известно о 144686 подтверждённых случаях (прирост за сутки 11930 случаев; 9,0%). В 118 странах мира вне КНР зарегистрировано 63665 случаев (за последние сутки прирост 11912; 23,0%).
  • За последние сутки впервые случаи зарегистрированы в Казахстане (3 завозных случая их Германии и 1 из Италии), Кении (1; из США), Тринидаде и Тобаго (1; из Швейцарии), Гане (2; из Норвегии и Турции), Габоне (1; из Франции), Эфиопии (1 из Японии), Венесуэле (2; из Испании).

 

 

  Всего случаев Прирост за сутки, случаев Прирост за сутки, % Летальных случаев Прирост за сутки, случаев Летальность, %
Китай 81021 18 0,02% 3194 14 3,9%
Вне Китая 63665 11912 23,0% 2224 440 3,5%
Итого в мире 144686 11930 9,0% 5418 454 3,7%

Количество случаев заболевания в мире

 

Регион Дата первого случая Страна Кол-во случаев

 

За послед-ние сутки Кол-во случаев с летальным исходом Летальных исходов за последние сутки Характер передачи инфекции
Западно-Тихоокеанский регион 1. 01.12.19 Китай 81021 18 3194 14 Местная
2. 14.01.20 Япония 725 86 21 2 Местная
Круизный лайнер «Diamond Princess» 697 1 7 0 Местная
3. 19.01.20 Республика Корея 8086 107 72 5 Местная
4. 23.01.20 Вьетнам 44 5 0 0 Местная
5. 24.01.20 Сингапур 200 22 0 0 Местная
6. 25.01.20 Австралия 156 17 3 0 Местная
7. 25.01.20 Малайзия 158 9 0 0 Местная
8. 27.01.20 Камбоджа 5 2 0 0 Местная
9. 30.01.20 Филиппины 64 12 6 4 Местная
10. 28.02.20 Новая Зеландия 5 0 0 0 Местная
11. 09.03.20 Монголия 1 0 0 0 Завоз
12. 10.03.20 Бруней 11 0 0 0 Завоз
Юго-Восточная Азия 13. 12.01.20 Таиланд 75 5 1 0 Местная
14. 24.01.20 Непал 1 0 0 0 Завоз
15. 27.01.20 Шри-Ланка 2 0 0 0 Завоз
16. 30.01.20 Индия 73 0 1 0 Местная
17. 07.03.20 Мальдивы 8 0 0 0 Местная
18. 02.03.20 Индонезия 69 35 4 3 Местная
19. 06.03.20 Бутан 1 0 0 0 Завоз
20. 08.03.20 Бангладеш 3 0 0 0 Местная
Европейский регион 21. 25.01.20 Франция 3667 791 79 18 Местная
22. 28.01.20 Германия 3675 1597 8 5 Местная
23. 29.01.20 Финляндия 109 50 0 0 Местная
24. 30.01.20 Италия 17760 2647 1266 250 Местная
25. 31.01.20 Великобритания 801 342 10 2 Местная
26. 31.01.20 Испания 5232 2264 133 47 Местная
27. 31.01.20 Россия 45 11 0 0 Завоз
28. 31.01.20 Швеция 814 215 1 0 Местная
29. 04.02.20 Бельгия 559 160 3 0 Местная
30. 21.02.20 Израиль 131 0 0 0 Местная
31. 25.02.20 Австрия 504 202 1 0 Местная
32. 25.02.20 Хорватия 27 8 0 0 Местная
33. 25.02.20 Швейцария 1139 281 11 5 Местная
34. 26.02.20 Северная Македония 7 0 0 0 Завоз
35. 26.02.20 Грузия 25 1 0 0 Завоз
36. 26.02.20 Норвегия 996 294 1 0 Местная
37. 27.02.20 Дания 804 187 0 0 Местная
38. 27.02.20 Эстония 41 25 0 0 Завоз
39. 27.02.20 Нидерланды 804 301 10 5 Местная
40. 27.02.20 Сан-Марино 77 8 5 3 Местная
41. 26.02.20 Греция 117 18 1 0 Местная
42. 26.02.20 Румыния 64 15 0 0 Местная
43. 28.02.20 Литва 3 0 0 0 Завоз
44. 28.02.20 Беларусь 21 9 0 0 Местная
45. 28.02.20 Азербайджан 11 0 1 1 Завоз
46. 28.02.20 Монако 2 1 0 0 Завоз
47. 28.02.20 Исландия 103 0 0 0 Местная
48. 29.02.20 Люксембург 26 7 0 0 Завоз
49. 01.03.20 Армения 4 0 0 0 Завоз
50. 29.02.20 Ирландия 70 27 1 0 Местная
51. 01.03.20 Чехия 116 22 0 0 Местная
52. 02.03.20 Андорра 1 0 0 0 Завоз
53. 02.03.20 Португалия 78 0 0 0 Местная
54. 02.03.20 Латвия 17 7 0 0 Завоз
55. 03.03.20 Украина 3 2 1 1 Завоз
56. 03.03.20 Лихтенштейн 4 3 0 0 Завоз
57. 04.03.20 Венгрия 19 6 0 0 Местная
58. 04.03.20 Польша 64 15 1 0 Завоз
59. 04.03.20 Словения 96 7 0 0 Местная
60. 06.03.20 Ватикан 1 0 0 0 Завоз
61. 06.03.20 Сербия 31 12 0 0 Завоз
62. 06.03.20 Словакия 21 5 0 0 Местная
63. 07.03.20 Мальта 12 6 0 0 Завоз
64. 07.03.20 Болгария 23 16 1 0 Местная
65. 07.03.20 Молдавия 6 3 0 0 Завоз
66. 05.03.20 Босния и Герцеговина 11 0 0 0 Местная
67. 10.03.20 Турция 2 1 0 0 Завоз
68. 10.03.20 Кипр 14 8 0 0 Завоз
69. 13.03.20 Казахстан 4 4 0 0 Завоз
70. 08.03.20 Албания 23 0 1 0 Местная
Американский регион 71. 21.01.20 США 2176 513 41 3 Местная
72. 26.01.20 Канада 117 0 1 0 Местная
73. 26.02.20 Бразилия 76 24 0 0 Местная
74. 28.02.20 Мексика 12 0 0 0 Завоз
75. 29.02.20 Эквадор 19 2 0 0 Местная
76. 01.03.20 Доминиканская Республика 5 0 0 0 Завоз
77. 03.03.20 Аргентина 31 12 1 0 Завоз
78. 06.03.20 Колумбия 9 0 0 0 Завоз
79. 03.03.20 Чили 33 10 0 0 Завоз
80. 06.03.20 Перу 22 7 0 0 Местная
81. 06.03.20 Коста-Рика 23 1 0 0 Завоз
82. 09.03.20 Панама 27 16 1 0 Завоз
83. 07.03.20 Парагвай 6 1 0 0 Завоз
84. 10.03.20 Боливия 2 0 0 0 Завоз
85. 10.03.20 Ямайка 8 6 0 0 Завоз
86. 11.03.20 Гондурас 2 0 0 0 Завоз
87. 12.03.20 Гайана 1 0 1 0 Завоз
88. 12.03.20 Куба 3 0 0 0 Завоз
89. 13.03.20 Венесуэла 2 2 0 0 Завоз
90. 13.03.20 Тринидад и Тобаго 1 1 0 0 Завоз
Восточно-Средиземноморский регион 91. 30.01.20 ОАЭ 85 0 0 0 Местная
92. 14.02.20 Египет 80 13 2 1 Местная
93. 19.02.20 Иран 11364 1289 514 85 Местная
94. 21.02.20 Ливан 68 7 3 0 Местная
95. 23.02.20 Кувейт 100 20 0 0 Завоз
96. 24.02.20 Бахрейн 197 2 0 0 Завоз
97. 24.02.20 Оман 19 1 0 0 Завоз
98. 24.02.20 Афганистан 7 0 0 0 Завоз
99. 24.02.20 Ирак 83 12 8 0 Завоз
100. 26.02.20 Пакистан 21 1 0 0 Завоз
101. 29.02.20 Катар 320 58 0 0 Завоз
102. 02.03.20 Иордания 1 0 0 0 Завоз
103. 02.03.20 Тунис 13 6 0 0 Завоз
104. 02.03.20 Саудовская Аравия 62 17 0 0 Завоз
105. 02.03.20 Морокко 6 0 1 0 Завоз
106. 05.03.20 Палестина 31 1 0 0 Местная
Африканский регион 107. 25.02.20 Алжир 24 0 1 0 Местная
108. 27.02.20 Нигерия 2 0 0 0 Завоз
109. 02.03.20 Сенегал 10 6 0 0 Завоз
110. 06.03.20 Камерун 2 0 0 0 Местная
111. 05.03.20 ЮАР 17 0 0 0 Завоз
112. 10.03.20 Буркина-Фасо 2 0 0 0 Завоз
113. 10.03.20 ДР Конго 1 0 0 0 Завоз
114. 06.03.20 Того 1 0 0 0 Завоз
115. 11.03.20 Кот-д’Ивуар 1 0 0 0 Завоз
116. 13.02.20 Кения 1 1 0 0 Завоз
117. 13.02.20 Гана 2 2 0 0 Завоз
118. 13.02.20 Габон 1 1 0 0 Завоз
119. 13.02.20 Эфиопия 1 1 0 0 Завоз
ВСЕГО 144686 11930 5418 454

Эпидемиологические и клинические характеристики

Возбудитель – новый коронавирус SARS-CoV-2 (название присвоено Международным комитетом по таксономии вирусов 11.02.20). Природный резервуар неизвестен; вероятно, дикие животные (предполагаются летучие мыши). Источник инфекции — больной человек.

Механизмы, пути и факторы передачи – основной механизм – аспирационный (воздушно-капельный или воздушно-пылевой путь передачи). Реализуется несколько механизмов передачи: аэрогенный механизм (воздушно-капельный, воздушно-пылевой пути передачи); фекально-оральный механизм; контактный механизм передачи. Существует потенциальный риск передачи инфекции коронавируса нового типа от матери к ребенку.

Вирус способен сохранять жизнеспособность на поверхностях в течение нескольких часов, а при температуре 200С и влажности 40-50% до 5 дней (материалы пресс-конференции правительства провинции Хубей от 03.02.20).

По данным Государственной Комиссии здравоохранения КНР более 83% массовых заражений коронавирусом происходят в результате тесных контактов без средств индивидуальной защиты – среди медицинского персонала, членов семьи больного.

Инкубационный период

Менее чем у 2,5% инфицированных людей будут проявляться симптомы в течение 2,2 дней (ДИ от 1,8 до 2,9 дня) после заражения, а появление симптомов наступит в течение 11,5 дней (ДИ от 8,2 до 15,6 дня) у 97,5% инфицированных. Оценка параметра дисперсии составила 1,52 (ДИ от 1,32 до 1,72), а расчетный средний инкубационный период составил 5,5 дней. Средний период до появления лихорадки составляет 5,7 дня (ДИ от 4,9 до 6,8 дня), при этом у 2,5% людей наблюдается лихорадка в течение 2,6 дня (при ДИ от 2,1 до 3,7 дня), а у 97,5% температура поднимается в течение 12,5 дней (ДИ От 8,2 до 17,7 дней) воздействия.

Клиническая картина

Повышение температуры отмечается у 33-68 % больных, кашель: 41-52 %, отделение мокроты: 7-32 %, усталость: 5-42 %, боль в горле: 7-14 %, стеснение в груди: 3-16 %, диарея: 3-7 %, тошнота: 0-3 %, ринит: 0-3 %.

Ведущими симптомами остаются повышение температуры тела (чаще 38-39 ° С) и кашель.

Средний срок от начала симптомов до госпитализации – от 12 дней (в начале января 2020 г.) до 3 дней (в началае февраля 2020 г.), по данным ВОЗ. Также по данным ВОЗ время выздоровления для случаев с лёгким течением  составляет около 2 недель, для случаев с тяжёлым течением  — от 3 до 6 недель.

Летальные случаи ассоциированы с возрастом пациентов >60 лет, как правило, при тяжелой сопутствующей патологии. Доля больных с тяжелым клиническим течением составляет 14-20%. У детей заболевание протекает в более лёгкой форме.

В КНР зафиксированы случаи, когда у выписанных пациентов с отрицательными результатами теста на коронавирус, впоследствии тест снова показывал положительный результат. Это объясняется несовершенством тестов, возможными ошибками лаборантов и особенностями организма конкретных пациентов. При этом нельзя точно сказать, идет ли речь о рецидиве заболевания или реинфекции.

Лабораторная диагностика

В настоящее время имеется информация о разработке тест-систем для выявления РНК вируса 2019-nCoV методом ПЦР в следующих организациях:

1) ГНЦ ВБ «Вектор» Роспотребнадзора (Россия)

2) CDC КНР

3) CDC США

4) Университет Гонконга

5) «Altona Diagnostics» (Германия)

6) «BGI Group» (КНР)

7) Гонконгский Университет науки и технологий

8) «Novacyt/Primerdesign» (Великобритания/Франция)

9) «Thermo Fisher Scientific» (США)

10) «Qiagen» (Германия)

11) «Biomeme» (США)

12) «TIB Molbiol» (Германия)

13) «Amoy Diagnostics» (КНР).

Согласно сообщению ИА Sina (КНР) от 08.02.20 г., китайские врачи отмечают возможность высокого числа ложноотрицательных результатов при исследовании на новый коронавирус. По оценке академика Wang Chen положительный результат при лабораторном исследовании регистрируется только у 30-50% от истинного числа заболевших. Это обусловлено тем, что вероятность обнаружения вируса выше всего при исследовании смывов с нижних дыхательных путей, меньше при исследовании мокроты и ниже всего при исследовании мазков с глотки. Также в настоящее время из-за повышенного спроса установлен «особый порядок подтверждения качества» для диагностических наборов, что сказывается на их чувствительности.

Лечение

Этиотропная терапия – отсутствует, используются симптоматическая терапия и препараты против РНК-содержащих вирусов.

Изучаются возможности применения противовирусных средств широкого действия, среди которых Ремдесивир, ингибиторы РНК-полимеразы, Лопинавир и Ритонавир и Интерферон бета.

Министерство здравоохранения  РФ в качестве этиотропной терапии рекомендовало использовать препараты: рибавирин, рекомбинантный интерферон бета-1b и лопинавир/ритонавир.

 

 

Оставить комментарий

Ваш адрес email не будет опубликован. Обязательные поля помечены *